createdAt,value
2018-12-17T18:37:04.665Z,2.20
2018-12-17T18:39:32.327Z,2.20
2018-12-17T18:42:00.241Z,2.30
2018-12-17T18:44:27.862Z,2.30
2018-12-17T18:46:55.588Z,2.40
2018-12-17T18:49:23.259Z,2.40
2018-12-17T18:51:50.873Z,2.50
2018-12-17T18:54:18.523Z,2.40
2018-12-17T18:56:46.259Z,2.50
2018-12-17T18:59:13.916Z,2.50
2018-12-17T19:01:41.577Z,2.50
2018-12-17T19:04:09.200Z,2.50
2018-12-17T19:06:37.122Z,2.60
2018-12-17T19:09:07.037Z,2.60
2018-12-17T19:11:34.644Z,2.60
2018-12-17T19:14:02.297Z,2.60
2018-12-17T19:16:29.936Z,2.60
2018-12-17T19:18:57.656Z,2.50
2018-12-17T19:21:25.393Z,2.50
2018-12-17T19:23:53.108Z,2.60
2018-12-17T19:26:20.734Z,2.60
2018-12-17T19:28:48.753Z,2.60
2018-12-17T19:31:16.697Z,2.60
2018-12-17T19:33:44.345Z,2.60
2018-12-17T19:36:12.001Z,2.60
2018-12-17T19:38:39.599Z,2.60
2018-12-17T19:41:07.202Z,2.70
2018-12-17T19:43:34.917Z,2.70
2018-12-17T19:46:02.666Z,2.70
2018-12-17T19:48:30.324Z,2.70
2018-12-17T19:50:57.952Z,2.70
2018-12-17T19:53:25.600Z,2.70
2018-12-17T19:55:53.217Z,2.70
2018-12-17T19:58:20.912Z,2.70
2018-12-17T20:00:48.579Z,2.70
2018-12-17T20:03:16.416Z,2.70
2018-12-17T20:05:44.091Z,2.70
2018-12-17T20:08:11.725Z,2.70
2018-12-17T20:10:39.377Z,2.70
2018-12-17T20:13:07.076Z,2.70
2018-12-17T20:15:34.713Z,2.60
2018-12-17T20:18:02.438Z,2.60
2018-12-17T20:20:30.125Z,2.70
2018-12-17T20:22:58.128Z,2.70
2018-12-17T20:25:25.873Z,2.60
2018-12-17T20:27:53.554Z,2.60
2018-12-17T20:30:21.201Z,2.60
2018-12-17T20:32:53.558Z,2.60
2018-12-17T20:35:18.652Z,2.60
2018-12-17T20:37:46.296Z,2.60
2018-12-17T20:40:13.962Z,2.60
2018-12-17T20:42:41.915Z,2.60
2018-12-17T20:45:09.557Z,2.50
2018-12-17T20:47:37.159Z,2.60
2018-12-17T20:50:06.143Z,2.60
2018-12-17T20:52:33.804Z,2.60
2018-12-17T20:55:01.433Z,2.60
2018-12-17T20:57:29.093Z,2.60
2018-12-17T20:59:57.141Z,2.60
2018-12-17T21:02:24.838Z,2.70
2018-12-17T21:04:52.457Z,2.70
2018-12-17T21:07:20.147Z,2.70
2018-12-17T21:09:47.815Z,2.70
2018-12-17T21:12:15.571Z,2.70
2018-12-17T21:14:43.180Z,2.70
2018-12-17T21:17:10.845Z,2.70
2018-12-17T21:19:38.482Z,2.80
2018-12-17T21:22:09.836Z,2.80
2018-12-17T21:24:37.448Z,2.70
2018-12-17T21:27:05.193Z,2.70
2018-12-17T21:29:32.864Z,2.70
2018-12-17T21:32:00.520Z,2.70
2018-12-17T21:34:28.145Z,2.70
2018-12-17T21:36:55.801Z,2.70
2018-12-17T21:39:23.452Z,2.70
2018-12-17T21:41:51.131Z,2.70
2018-12-17T21:44:18.834Z,2.70
2018-12-17T21:46:46.443Z,2.70
2018-12-17T21:49:14.013Z,2.90
2018-12-17T21:51:41.664Z,2.80
2018-12-17T21:54:09.289Z,2.80
2018-12-17T21:56:37.062Z,2.80
2018-12-17T21:59:04.686Z,2.80
2018-12-17T22:01:32.290Z,2.80
2018-12-17T22:04:00.258Z,2.80
2018-12-17T22:06:27.864Z,2.80
2018-12-17T22:08:55.457Z,2.80
2018-12-17T22:11:23.095Z,2.80
2018-12-17T22:13:50.739Z,2.80
2018-12-17T22:16:18.369Z,2.80
2018-12-17T22:18:46.046Z,2.80
2018-12-17T22:21:13.637Z,2.80
2018-12-17T22:23:41.311Z,2.80
2018-12-17T22:26:08.949Z,2.80
2018-12-17T22:28:36.576Z,2.80
2018-12-17T22:31:04.216Z,2.80
2018-12-17T22:33:31.807Z,2.80
2018-12-17T22:35:59.400Z,2.80
2018-12-17T22:38:27.025Z,2.80
2018-12-17T22:40:54.665Z,2.90
2018-12-17T22:43:22.248Z,2.90
2018-12-17T22:45:50.198Z,2.80
2018-12-17T22:48:17.784Z,2.80
2018-12-17T22:50:45.391Z,2.80
2018-12-17T22:53:13.024Z,2.80
2018-12-17T22:55:40.773Z,2.80
2018-12-17T22:58:08.406Z,2.90
2018-12-17T23:00:36.474Z,2.90
2018-12-17T23:03:04.054Z,2.90
2018-12-17T23:05:31.688Z,2.90
2018-12-17T23:07:59.391Z,2.90
2018-12-17T23:10:44.199Z,2.90
2018-12-17T23:13:23.404Z,2.90
2018-12-17T23:16:02.343Z,2.90
2018-12-17T23:18:28.848Z,2.90
2018-12-17T23:20:56.639Z,2.90
2018-12-17T23:23:24.236Z,2.90
2018-12-17T23:25:52.755Z,2.90
2018-12-17T23:28:20.769Z,2.80
2018-12-17T23:30:48.363Z,2.80
2018-12-17T23:33:15.963Z,2.80
2018-12-17T23:35:43.576Z,2.80
2018-12-17T23:38:11.227Z,2.80
2018-12-17T23:40:38.838Z,2.80
2018-12-17T23:43:06.435Z,2.80
2018-12-17T23:45:34.088Z,2.80
2018-12-17T23:48:01.850Z,2.80
2018-12-17T23:50:29.483Z,2.80
2018-12-17T23:52:57.081Z,2.90
2018-12-17T23:55:24.649Z,2.90
2018-12-17T23:57:52.293Z,2.90
